createdAt,value
2023-02-25T00:03:51.980Z,20.14
2023-02-25T00:07:51.876Z,20.13
2023-02-25T00:11:51.718Z,20.14
2023-02-25T00:15:51.602Z,20.13
2023-02-25T00:19:51.478Z,20.12
2023-02-25T00:23:51.342Z,20.12
2023-02-25T00:27:51.215Z,20.12
2023-02-25T00:31:51.296Z,20.11
2023-02-25T00:35:51.013Z,20.11
2023-02-25T00:39:50.945Z,20.10
2023-02-25T00:43:50.670Z,20.09
2023-02-25T00:47:50.544Z,20.08
2023-02-25T00:51:50.440Z,20.07
2023-02-25T00:55:50.273Z,20.08
2023-02-25T00:59:50.184Z,20.09
2023-02-25T01:03:50.049Z,20.08
2023-02-25T01:07:49.944Z,20.09
2023-02-25T01:11:49.801Z,20.08
2023-02-25T01:15:49.638Z,20.09
2023-02-25T01:19:49.519Z,20.10
2023-02-25T01:23:49.408Z,20.10
2023-02-25T01:27:49.256Z,20.08
2023-02-25T01:31:49.289Z,20.08
2023-02-25T01:35:49.018Z,20.07
2023-02-25T01:39:49.485Z,20.06
2023-02-25T01:43:48.698Z,20.04
2023-02-25T01:47:48.578Z,20.04
2023-02-25T01:51:48.403Z,20.03
2023-02-25T01:55:48.412Z,20.04
2023-02-25T01:59:48.213Z,20.05
2023-02-25T02:03:48.135Z,20.04
2023-02-25T02:07:48.033Z,20.04
2023-02-25T02:11:47.922Z,20.03
2023-02-25T02:15:47.881Z,20.02
2023-02-25T02:19:47.786Z,20.02
2023-02-25T02:23:47.695Z,20.02
2023-02-25T02:27:47.658Z,20.02
2023-02-25T02:31:47.700Z,20.01
2023-02-25T02:35:47.526Z,20.02
2023-02-25T02:39:47.437Z,20.04
2023-02-25T02:43:47.328Z,20.03
2023-02-25T02:47:47.323Z,20.03
2023-02-25T02:51:47.188Z,20.04
2023-02-25T02:55:47.094Z,20.04
2023-02-25T02:59:47.029Z,20.04
2023-02-25T03:03:47.040Z,20.06
2023-02-25T03:07:46.872Z,20.06
2023-02-25T03:11:46.797Z,20.06
2023-02-25T03:15:46.704Z,20.06
2023-02-25T03:19:46.602Z,20.06
2023-02-25T03:23:46.507Z,20.06
2023-02-25T03:27:46.371Z,20.05
2023-02-25T03:31:46.445Z,20.05
2023-02-25T03:35:46.177Z,20.03
2023-02-25T03:39:46.124Z,20.03
2023-02-25T03:43:46.083Z,20.04
2023-02-25T03:47:45.999Z,20.03
2023-02-25T03:51:45.913Z,20.04
2023-02-25T03:55:45.879Z,20.03
2023-02-25T03:59:45.815Z,20.02
2023-02-25T04:03:45.730Z,20.01
2023-02-25T04:07:45.706Z,20.00
2023-02-25T04:11:45.655Z,20.00
2023-02-25T04:15:45.770Z,20.00
2023-02-25T04:19:45.545Z,19.99
2023-02-25T04:23:45.485Z,19.99
2023-02-25T04:27:45.463Z,19.98
2023-02-25T04:31:45.701Z,19.98
2023-02-25T04:35:45.335Z,19.98
2023-02-25T04:39:45.269Z,19.96
2023-02-25T04:43:45.250Z,19.97
2023-02-25T04:47:45.203Z,19.98
2023-02-25T04:51:45.175Z,19.96
2023-02-25T04:55:45.079Z,19.96
2023-02-25T04:59:45.059Z,19.94
2023-02-25T05:03:45.024Z,19.94
2023-02-25T05:07:44.988Z,19.93
2023-02-25T05:11:44.955Z,19.93
2023-02-25T05:15:44.963Z,19.92
2023-02-25T05:19:44.906Z,19.91
2023-02-25T05:23:44.961Z,19.90
2023-02-25T05:27:44.996Z,19.90
2023-02-25T05:31:45.151Z,19.88
2023-02-25T05:35:44.949Z,19.88
2023-02-25T05:39:44.987Z,19.88
2023-02-25T05:43:44.967Z,19.87
2023-02-25T05:47:44.965Z,19.86
2023-02-25T05:51:44.977Z,19.86
2023-02-25T05:55:45.105Z,19.86
2023-02-25T05:59:45.052Z,19.85
2023-02-25T06:03:45.113Z,19.84
2023-02-25T06:07:45.101Z,19.83
2023-02-25T06:11:45.130Z,19.82
2023-02-25T06:15:45.135Z,19.82
2023-02-25T06:19:45.209Z,19.82
2023-02-25T06:23:45.281Z,19.82
2023-02-25T06:27:45.254Z,19.82
2023-02-25T06:31:45.369Z,19.82
2023-02-25T06:35:45.324Z,19.81
2023-02-25T06:39:45.402Z,19.81
2023-02-25T06:43:45.435Z,19.81
2023-02-25T06:47:45.493Z,19.81
2023-02-25T06:51:45.521Z,19.81
2023-02-25T06:55:45.607Z,19.79
2023-02-25T06:59:45.664Z,19.80
2023-02-25T07:03:45.742Z,19.80
2023-02-25T07:07:45.838Z,19.79
2023-02-25T07:11:45.886Z,19.80
2023-02-25T07:15:46.030Z,19.80
2023-02-25T07:19:45.986Z,19.80
2023-02-25T07:23:46.044Z,19.80
2023-02-25T07:27:46.122Z,19.80
2023-02-25T07:31:46.374Z,19.78
2023-02-25T07:35:46.318Z,19.78
2023-02-25T07:39:47.785Z,19.79
2023-02-25T07:43:46.492Z,19.78
2023-02-25T07:47:46.572Z,19.78
2023-02-25T07:51:46.614Z,19.79
2023-02-25T07:55:46.671Z,19.78
2023-02-25T07:59:46.761Z,19.78
2023-02-25T08:03:46.844Z,19.79
2023-02-25T08:07:46.922Z,19.79
2023-02-25T08:11:46.977Z,19.79
2023-02-25T08:15:47.122Z,19.81
2023-02-25T08:19:47.052Z,19.81
2023-02-25T08:23:47.182Z,19.81
2023-02-25T08:27:47.203Z,19.81
2023-02-25T08:31:47.448Z,19.81
2023-02-25T08:35:47.300Z,19.82
2023-02-25T08:39:47.323Z,19.84
2023-02-25T08:43:47.344Z,19.83
2023-02-25T08:47:47.445Z,19.83
2023-02-25T08:51:47.503Z,19.83
2023-02-25T08:55:47.566Z,19.82
2023-02-25T08:59:47.609Z,19.83
2023-02-25T09:03:47.666Z,19.84
2023-02-25T09:07:47.707Z,19.85
2023-02-25T09:11:47.744Z,19.85
2023-02-25T09:15:47.762Z,19.85
2023-02-25T09:19:47.773Z,19.86
2023-02-25T09:23:47.836Z,19.87
2023-02-25T09:27:47.853Z,19.88
2023-02-25T09:31:48.090Z,19.88
2023-02-25T09:35:47.887Z,19.90
2023-02-25T09:39:47.923Z,19.91
2023-02-25T09:43:47.960Z,19.93
2023-02-25T09:47:47.941Z,19.94
2023-02-25T09:51:47.853Z,19.94
2023-02-25T09:55:47.860Z,19.96
2023-02-25T09:59:47.858Z,19.99
2023-02-25T10:03:47.790Z,20.00
2023-02-25T10:07:47.741Z,20.02
2023-02-25T10:11:47.703Z,20.04
2023-02-25T10:15:52.406Z,20.05
2023-02-25T10:19:48.513Z,20.08
2023-02-25T10:23:47.402Z,20.10
2023-02-25T10:27:47.312Z,20.10
2023-02-25T10:31:47.371Z,20.09
2023-02-25T10:35:47.099Z,20.09
2023-02-25T10:39:46.954Z,20.11
2023-02-25T10:43:46.853Z,20.11
2023-02-25T10:47:46.754Z,20.10
2023-02-25T10:51:46.620Z,20.10
2023-02-25T10:55:46.551Z,20.11
2023-02-25T10:59:46.502Z,20.10
2023-02-25T11:03:46.344Z,20.08
2023-02-25T11:07:46.181Z,20.08
2023-02-25T11:11:46.085Z,20.08
2023-02-25T11:15:46.829Z,20.10
2023-02-25T11:19:45.932Z,20.11
2023-02-25T11:23:45.819Z,20.11
2023-02-25T11:27:45.698Z,20.13
2023-02-25T11:31:45.783Z,20.11
2023-02-25T11:35:45.525Z,20.10
2023-02-25T11:39:45.454Z,20.09
2023-02-25T11:43:45.407Z,20.09
2023-02-25T11:47:45.300Z,20.10
2023-02-25T11:51:45.220Z,20.10
2023-02-25T11:55:45.135Z,20.11
2023-02-25T11:59:45.044Z,20.11
2023-02-25T12:03:44.937Z,20.10
2023-02-25T12:07:55.541Z,20.10
2023-02-25T12:11:45.719Z,20.10
2023-02-25T12:15:44.628Z,20.10
2023-02-25T12:19:44.486Z,20.10
2023-02-25T12:23:44.374Z,20.11
2023-02-25T12:27:44.292Z,20.11
2023-02-25T12:31:44.262Z,20.10
2023-02-25T12:35:44.076Z,20.11
2023-02-25T12:39:43.890Z,20.11
2023-02-25T12:43:43.813Z,20.12
2023-02-25T12:47:43.715Z,20.12
2023-02-25T12:51:43.599Z,20.11
2023-02-25T12:55:43.494Z,20.11
2023-02-25T12:59:43.399Z,20.09
2023-02-25T13:03:43.351Z,20.09
2023-02-25T13:07:43.210Z,20.08
2023-02-25T13:12:10.108Z,20.09
2023-02-25T13:15:44.051Z,20.10
2023-02-25T13:19:42.909Z,20.08
2023-02-25T13:23:42.810Z,20.08
2023-02-25T13:27:42.663Z,20.09
2023-02-25T13:31:42.694Z,20.09
2023-02-25T13:35:42.471Z,20.08
2023-02-25T13:39:42.331Z,20.08
2023-02-25T13:43:42.230Z,20.07
2023-02-25T13:47:42.081Z,20.06
2023-02-25T13:51:42.004Z,20.06
2023-02-25T13:55:41.878Z,20.05
2023-02-25T13:59:41.889Z,20.03
2023-02-25T14:03:41.676Z,20.01
2023-02-25T14:07:41.614Z,20.01
2023-02-25T14:11:43.456Z,20.00
2023-02-25T14:15:41.647Z,19.99
2023-02-25T14:19:41.539Z,19.99
2023-02-25T14:23:41.533Z,19.98
2023-02-25T14:27:41.494Z,19.97
2023-02-25T14:31:41.595Z,19.96
2023-02-25T14:35:41.415Z,19.94
2023-02-25T14:39:41.442Z,19.92
2023-02-25T14:43:41.380Z,19.92
2023-02-25T14:47:41.381Z,19.91
2023-02-25T14:51:41.386Z,19.90
2023-02-25T14:55:41.369Z,19.90
2023-02-25T14:59:41.348Z,19.89
2023-02-25T15:03:43.208Z,19.87
2023-02-25T15:07:41.399Z,19.87
2023-02-25T15:11:41.408Z,19.86
2023-02-25T15:15:41.472Z,19.86
2023-02-25T15:19:41.440Z,19.85
2023-02-25T15:23:41.495Z,19.84
2023-02-25T15:27:41.532Z,19.84
2023-02-25T15:31:41.641Z,19.83
2023-02-25T15:35:41.631Z,19.83
2023-02-25T15:39:41.682Z,19.81
2023-02-25T15:43:41.784Z,19.81
2023-02-25T15:47:41.766Z,19.81
2023-02-25T15:51:41.837Z,19.78
2023-02-25T15:55:41.895Z,19.77
2023-02-25T15:59:42.181Z,19.76
2023-02-25T16:03:42.065Z,19.75
2023-02-25T16:07:42.130Z,19.74
2023-02-25T16:11:42.258Z,19.74
2023-02-25T16:15:42.348Z,19.72
2023-02-25T16:19:42.491Z,19.71
2023-02-25T16:23:42.585Z,19.72
2023-02-25T16:27:42.719Z,19.70
2023-02-25T16:31:42.953Z,19.70
2023-02-25T16:35:42.952Z,19.70
2023-02-25T16:39:43.137Z,19.68
2023-02-25T16:43:43.288Z,19.68
2023-02-25T16:47:43.366Z,19.68
2023-02-25T16:51:43.530Z,19.67
2023-02-25T16:55:43.671Z,19.66
2023-02-25T16:59:43.833Z,19.67
2023-02-25T17:03:44.078Z,19.65
2023-02-25T17:07:44.168Z,19.65
2023-02-25T17:11:44.048Z,19.64
2023-02-25T17:15:43.953Z,19.64
2023-02-25T17:19:43.894Z,19.63
2023-02-25T17:23:43.779Z,19.61
2023-02-25T17:27:43.668Z,19.62
2023-02-25T17:31:43.724Z,19.61
2023-02-25T17:35:43.491Z,19.61
2023-02-25T17:39:43.450Z,19.60
2023-02-25T17:43:43.304Z,19.60
2023-02-25T17:47:43.193Z,19.60
2023-02-25T17:51:43.203Z,19.58
2023-02-25T17:55:43.177Z,19.58
2023-02-25T17:59:42.992Z,19.57
2023-02-25T18:03:42.937Z,19.58
2023-02-25T18:07:42.852Z,19.57
2023-02-25T18:11:42.690Z,19.56
2023-02-25T18:15:43.933Z,19.55
2023-02-25T18:19:44.357Z,19.55
2023-02-25T18:23:42.393Z,19.54
2023-02-25T18:27:42.308Z,19.54
2023-02-25T18:31:42.325Z,19.53
2023-02-25T18:35:42.138Z,19.52
2023-02-25T18:39:42.019Z,19.52
2023-02-25T18:43:41.944Z,19.51
2023-02-25T18:47:41.840Z,19.50
2023-02-25T18:51:41.734Z,19.50
2023-02-25T18:55:41.707Z,19.50
2023-02-25T18:59:41.836Z,19.50
2023-02-25T19:03:41.968Z,19.49
2023-02-25T19:07:42.134Z,19.50
2023-02-25T19:11:42.025Z,19.48
2023-02-25T19:15:41.958Z,19.47
2023-02-25T19:19:41.911Z,19.46
2023-02-25T19:23:41.796Z,19.45
2023-02-25T19:27:41.728Z,19.45
2023-02-25T19:31:41.691Z,19.45
2023-02-25T19:35:41.500Z,19.46
2023-02-25T19:39:41.421Z,19.44
2023-02-25T19:43:41.357Z,19.42
2023-02-25T19:47:42.783Z,19.42
2023-02-25T19:51:41.156Z,19.43
2023-02-25T19:55:41.053Z,19.43
2023-02-25T19:59:41.015Z,19.42
2023-02-25T20:03:40.972Z,19.42
2023-02-25T20:07:40.781Z,19.41
2023-02-25T20:11:40.710Z,19.41
2023-02-25T20:15:40.727Z,19.40
2023-02-25T20:19:40.855Z,19.39
2023-02-25T20:23:40.939Z,19.40
2023-02-25T20:27:41.079Z,19.38
2023-02-25T20:31:41.248Z,19.38
2023-02-25T20:35:41.205Z,19.37
2023-02-25T20:39:41.221Z,19.37
2023-02-25T20:43:41.235Z,19.37
2023-02-25T20:47:41.367Z,19.36
2023-02-25T20:51:41.465Z,19.37
2023-02-25T20:55:41.380Z,19.35
2023-02-25T20:59:41.373Z,19.35
2023-02-25T21:03:41.366Z,19.35
2023-02-25T21:07:41.339Z,19.35
2023-02-25T21:11:41.320Z,19.35
2023-02-25T21:15:41.298Z,19.35
2023-02-25T21:19:41.271Z,19.34
2023-02-25T21:23:41.195Z,19.33
2023-02-25T21:27:41.170Z,19.33
2023-02-25T21:31:41.285Z,19.33
2023-02-25T21:35:41.058Z,19.33
2023-02-25T21:39:41.019Z,19.32
2023-02-25T21:43:40.933Z,19.32
2023-02-25T21:47:40.861Z,19.32
2023-02-25T21:51:40.819Z,19.33
2023-02-25T21:55:40.742Z,19.31
2023-02-25T21:59:40.676Z,19.29
2023-02-25T22:03:40.667Z,19.29
2023-02-25T22:07:40.540Z,19.29
2023-02-25T22:11:40.499Z,19.29
2023-02-25T22:15:40.507Z,19.28
2023-02-25T22:19:40.430Z,19.28
2023-02-25T22:23:40.384Z,19.27
2023-02-25T22:27:40.330Z,19.27
2023-02-25T22:31:40.364Z,19.26
2023-02-25T22:35:40.319Z,19.25
2023-02-25T22:39:40.298Z,19.24
2023-02-25T22:43:40.290Z,19.25
2023-02-25T22:47:40.252Z,19.26
2023-02-25T22:51:40.242Z,19.24
2023-02-25T22:55:40.201Z,19.24
2023-02-25T22:59:40.153Z,19.23
2023-02-25T23:03:40.086Z,19.22
2023-02-25T23:07:40.069Z,19.23
2023-02-25T23:11:39.992Z,19.22
2023-02-25T23:15:39.984Z,19.21
2023-02-25T23:19:39.956Z,19.21
2023-02-25T23:23:39.913Z,19.20
2023-02-25T23:27:39.902Z,19.19
2023-02-25T23:31:39.994Z,19.18
2023-02-25T23:35:39.867Z,19.18
2023-02-25T23:39:39.839Z,19.17
2023-02-25T23:43:39.858Z,19.17
2023-02-25T23:47:39.835Z,19.17
2023-02-25T23:51:39.826Z,19.17
2023-02-25T23:55:39.891Z,19.16
2023-02-25T23:59:39.863Z,19.15
